createdAt,value
2022-12-13T00:02:43.002Z,27.17
2022-12-13T00:05:43.929Z,26.80
2022-12-13T00:08:44.904Z,25.50
2022-12-13T00:11:45.958Z,26.02
2022-12-13T00:14:46.947Z,26.42
2022-12-13T00:20:52.953Z,27.38
2022-12-13T00:23:53.918Z,25.65
2022-12-13T00:26:54.964Z,25.45
2022-12-13T00:32:50.003Z,24.05
2022-12-13T00:35:30.871Z,25.50
2022-12-13T00:37:57.648Z,26.70
2022-12-13T00:40:24.310Z,25.02
2022-12-13T00:42:50.833Z,26.25
2022-12-13T00:45:17.571Z,25.98
2022-12-13T00:47:44.396Z,26.08
2022-12-13T00:50:10.874Z,25.83
2022-12-13T00:52:37.503Z,26.33
2022-12-13T00:55:04.626Z,27.25
2022-12-13T00:57:31.202Z,26.35
2022-12-13T00:59:57.728Z,26.38
2022-12-13T01:02:24.287Z,26.45
2022-12-13T01:04:50.812Z,27.80
2022-12-13T01:07:17.353Z,26.13
2022-12-13T01:09:43.924Z,27.88
2022-12-13T01:12:11.488Z,29.65
2022-12-13T01:14:40.503Z,27.90
2022-12-13T01:17:07.902Z,25.88
2022-12-13T01:19:34.671Z,29.88
2022-12-13T01:22:04.008Z,25.95
2022-12-13T01:24:31.083Z,27.90
2022-12-13T01:26:58.320Z,28.73
2022-12-13T01:29:25.979Z,27.80
2022-12-13T01:31:53.559Z,26.30
2022-12-13T01:34:21.634Z,27.85
2022-12-13T01:36:58.271Z,28.33
2022-12-13T01:39:26.478Z,28.17
2022-12-13T01:41:59.811Z,28.35
2022-12-13T01:45:00.865Z,31.00
2022-12-13T01:47:27.475Z,29.35
2022-12-13T01:49:56.676Z,29.58
2022-12-13T01:52:26.291Z,28.80
2022-12-13T01:54:55.940Z,30.02
2022-12-13T01:57:32.439Z,28.58
2022-12-13T01:59:59.761Z,29.45
2022-12-13T02:02:26.348Z,30.40
2022-12-13T02:04:58.413Z,28.45
2022-12-13T02:07:27.732Z,29.00
2022-12-13T02:09:57.369Z,29.45
2022-12-13T02:12:30.225Z,30.38
2022-12-13T02:15:00.599Z,28.60
2022-12-13T02:17:30.510Z,29.88
2022-12-13T02:20:22.302Z,28.70
2022-12-13T02:23:31.364Z,28.83
2022-12-13T02:26:25.321Z,28.63
2022-12-13T02:29:03.626Z,29.33
2022-12-13T02:31:35.675Z,29.27
2022-12-13T02:34:08.631Z,32.00
2022-12-13T02:37:02.687Z,28.02
2022-12-13T02:40:06.883Z,29.45
2022-12-13T02:43:07.275Z,28.88
2022-12-13T02:45:39.546Z,31.83
2022-12-13T02:48:08.328Z,28.38
2022-12-13T02:50:35.965Z,29.55
2022-12-13T02:53:02.580Z,30.85
2022-12-13T02:55:29.159Z,31.13
2022-12-13T02:57:55.873Z,29.75
2022-12-13T03:00:28.042Z,32.03
2022-12-13T03:03:14.520Z,31.92
2022-12-13T03:06:03.442Z,29.88
2022-12-13T03:08:50.995Z,30.90
2022-12-13T03:11:18.792Z,32.58
2022-12-13T03:13:53.338Z,35.40
2022-12-13T03:16:27.860Z,32.92
2022-12-13T03:18:58.466Z,32.55
2022-12-13T03:21:25.423Z,33.13
2022-12-13T03:23:51.967Z,34.00
2022-12-13T03:26:22.355Z,33.90
2022-12-13T03:28:48.963Z,36.35
2022-12-13T03:31:15.606Z,35.67
2022-12-13T03:33:42.165Z,34.50
2022-12-13T03:36:09.233Z,32.92
2022-12-13T03:38:36.206Z,35.47
2022-12-13T03:41:07.164Z,35.10
2022-12-13T03:43:33.884Z,34.20
2022-12-13T03:46:01.273Z,33.92
2022-12-13T03:48:27.813Z,32.78
2022-12-13T03:50:55.222Z,32.53
2022-12-13T03:53:33.512Z,33.72
2022-12-13T03:56:01.928Z,33.90
2022-12-13T03:58:35.739Z,31.30
2022-12-13T04:01:06.105Z,34.45
2022-12-13T04:03:32.596Z,32.92
2022-12-13T04:05:59.092Z,33.40
2022-12-13T04:08:25.672Z,33.70
2022-12-13T04:10:52.208Z,33.97
2022-12-13T04:13:33.769Z,33.05
2022-12-13T04:16:01.518Z,32.58
2022-12-13T04:18:28.121Z,33.25
2022-12-13T04:20:54.659Z,32.38
2022-12-13T04:23:21.116Z,32.28
2022-12-13T04:25:47.620Z,31.45
2022-12-13T04:28:22.187Z,32.47
2022-12-13T04:30:52.936Z,30.17
2022-12-13T04:33:21.995Z,31.27
2022-12-13T04:35:48.811Z,30.15
2022-12-13T04:38:16.017Z,30.48
2022-12-13T04:40:42.528Z,31.73
2022-12-13T04:43:09.171Z,32.35
2022-12-13T04:45:36.027Z,30.52
2022-12-13T04:48:02.597Z,30.85
2022-12-13T04:50:29.199Z,31.50
2022-12-13T04:52:55.824Z,29.95
2022-12-13T04:55:22.292Z,29.73
2022-12-13T04:57:49.334Z,29.83
2022-12-13T05:00:16.511Z,30.23
2022-12-13T05:02:43.173Z,30.80
2022-12-13T05:05:10.512Z,30.75
2022-12-13T05:07:41.899Z,29.02
2022-12-13T05:10:10.373Z,29.10
2022-12-13T05:12:36.954Z,30.50
2022-12-13T05:15:03.811Z,35.40
2022-12-13T05:17:30.350Z,31.58
2022-12-13T05:19:56.892Z,31.45
2022-12-13T05:22:23.393Z,33.03
2022-12-13T05:24:50.047Z,30.73
2022-12-13T05:27:25.893Z,29.73
2022-12-13T05:30:03.067Z,30.73
2022-12-13T05:32:44.043Z,31.00
2022-12-13T05:35:21.791Z,31.23
2022-12-13T05:37:53.250Z,33.60
2022-12-13T05:40:27.972Z,32.72
2022-12-13T05:43:01.458Z,33.88
2022-12-13T05:45:29.398Z,31.80
2022-12-13T05:47:56.078Z,33.35
2022-12-13T05:50:22.653Z,32.20
2022-12-13T05:52:49.499Z,32.10
2022-12-13T05:55:16.493Z,33.20
2022-12-13T05:57:50.459Z,29.83
2022-12-13T06:00:28.749Z,32.22
2022-12-13T06:03:00.654Z,27.00
2022-12-13T06:05:29.832Z,31.25
2022-12-13T06:07:57.725Z,32.95
2022-12-13T06:10:34.730Z,30.33
2022-12-13T06:13:20.875Z,33.30
2022-12-13T06:15:49.586Z,34.60
2022-12-13T06:18:16.194Z,33.47
2022-12-13T06:20:42.881Z,29.92
2022-12-13T06:23:09.455Z,28.70
2022-12-13T06:25:36.778Z,32.75
2022-12-13T06:28:03.449Z,34.30
2022-12-13T06:30:30.904Z,33.38
2022-12-13T06:32:57.567Z,30.02
2022-12-13T06:35:28.230Z,29.73
2022-12-13T06:38:01.866Z,29.38
2022-12-13T06:40:31.607Z,31.25
2022-12-13T06:42:58.076Z,27.65
2022-12-13T06:45:25.264Z,30.13
2022-12-13T06:47:51.996Z,31.50
2022-12-13T06:50:18.704Z,27.73
2022-12-13T06:52:48.532Z,27.67
2022-12-13T06:55:15.433Z,31.40
2022-12-13T06:57:50.873Z,27.98
2022-12-13T07:00:22.527Z,28.83
2022-12-13T07:02:56.718Z,29.58
2022-12-13T07:05:24.931Z,26.83
2022-12-13T07:07:51.611Z,28.10
2022-12-13T07:10:22.636Z,26.95
2022-12-13T07:12:50.329Z,27.25
2022-12-13T07:15:17.116Z,25.30
2022-12-13T07:17:43.805Z,26.30
2022-12-13T07:20:11.319Z,28.92
2022-12-13T07:22:46.819Z,26.58
2022-12-13T07:25:27.132Z,26.35
2022-12-13T07:28:02.377Z,26.70
2022-12-13T07:30:31.080Z,26.08
2022-12-13T07:32:58.295Z,27.38
2022-12-13T07:35:24.925Z,26.67
2022-12-13T07:37:51.667Z,26.73
2022-12-13T07:40:18.291Z,25.52
2022-12-13T07:42:55.695Z,25.98
2022-12-13T07:45:24.282Z,27.45
2022-12-13T07:47:51.199Z,28.13
2022-12-13T07:50:24.846Z,27.30
2022-12-13T07:52:52.779Z,27.45
2022-12-13T07:55:23.300Z,26.05
2022-12-13T07:58:12.174Z,27.17
2022-12-13T08:00:39.899Z,28.02
2022-12-13T08:03:06.719Z,28.90
2022-12-13T08:05:38.720Z,27.15
2022-12-13T08:08:08.628Z,27.23
2022-12-13T08:10:35.401Z,25.48
2022-12-13T08:13:02.778Z,25.55
2022-12-13T08:15:29.520Z,26.40
2022-12-13T08:17:56.867Z,28.42
2022-12-13T08:20:23.442Z,28.02
2022-12-13T08:23:01.707Z,26.63
2022-12-13T08:25:30.211Z,26.65
2022-12-13T08:28:01.687Z,26.75
2022-12-13T08:30:31.666Z,26.30
2022-12-13T08:32:58.329Z,26.58
2022-12-13T08:35:33.619Z,27.10
2022-12-13T08:38:00.989Z,24.90
2022-12-13T08:40:27.737Z,25.38
2022-12-13T08:42:57.062Z,23.33
2022-12-13T08:45:31.568Z,24.52
2022-12-13T08:47:59.663Z,23.42
2022-12-13T08:50:27.109Z,24.00
2022-12-13T08:52:53.767Z,23.52
2022-12-13T08:55:31.794Z,23.95
2022-12-13T08:58:01.184Z,23.20
2022-12-13T09:00:28.136Z,23.42
2022-12-13T09:02:57.332Z,22.15
2022-12-13T09:05:34.248Z,22.40
2022-12-13T09:08:04.017Z,20.33
2022-12-13T09:10:38.046Z,20.83
2022-12-13T09:13:11.727Z,20.98
2022-12-13T09:15:45.968Z,20.15
2022-12-13T09:18:15.205Z,21.63
2022-12-13T09:20:42.733Z,19.85
2022-12-13T09:23:13.697Z,18.45
2022-12-13T09:25:56.386Z,19.20
2022-12-13T09:28:32.576Z,17.58
2022-12-13T09:30:59.907Z,18.77
2022-12-13T09:33:29.831Z,19.10
2022-12-13T09:35:57.589Z,16.77
2022-12-13T09:38:24.134Z,18.60
2022-12-13T09:40:59.155Z,17.25
2022-12-13T09:43:33.389Z,17.65
2022-12-13T09:46:22.896Z,18.70
2022-12-13T09:48:52.259Z,17.30
2022-12-13T09:51:29.891Z,18.13
2022-12-13T09:54:05.604Z,18.17
2022-12-13T09:56:33.149Z,16.95
2022-12-13T09:58:59.703Z,16.25
2022-12-13T10:01:26.345Z,17.25
2022-12-13T10:03:54.556Z,16.60
2022-12-13T10:06:24.188Z,16.85
2022-12-13T10:08:57.912Z,17.60
2022-12-13T10:11:31.472Z,18.67
2022-12-13T10:14:12.918Z,17.50
2022-12-13T10:16:45.572Z,14.50
2022-12-13T10:19:28.147Z,17.58
2022-12-13T10:22:01.918Z,16.83
2022-12-13T10:24:36.316Z,16.30
2022-12-13T10:27:14.683Z,16.15
2022-12-13T10:30:07.118Z,16.92
2022-12-13T10:32:42.906Z,16.67
2022-12-13T10:35:21.921Z,15.68
2022-12-13T10:37:48.534Z,15.63
2022-12-13T10:40:33.435Z,15.20
2022-12-13T10:43:20.977Z,15.77
2022-12-13T10:45:57.130Z,15.65
2022-12-13T10:48:38.201Z,15.27
2022-12-13T10:51:11.583Z,15.32
2022-12-13T10:53:47.526Z,14.88
2022-12-13T10:56:22.974Z,14.75
2022-12-13T10:59:15.123Z,14.73
2022-12-13T11:01:43.979Z,15.80
2022-12-13T11:04:30.010Z,14.95
2022-12-13T11:06:58.381Z,14.98
2022-12-13T11:09:38.458Z,15.18
2022-12-13T11:12:13.315Z,14.77
2022-12-13T11:14:56.539Z,15.32
2022-12-13T11:17:25.283Z,15.15
2022-12-13T11:20:04.599Z,15.52
2022-12-13T11:22:34.103Z,14.15
2022-12-13T11:25:08.449Z,15.35
2022-12-13T11:28:03.585Z,15.32
2022-12-13T11:31:15.327Z,15.93
2022-12-13T11:34:15.556Z,17.15
2022-12-13T11:36:52.549Z,15.00
2022-12-13T11:39:38.114Z,15.68
2022-12-13T11:42:11.046Z,15.15
2022-12-13T11:44:48.170Z,16.00
2022-12-13T11:47:25.215Z,15.88
2022-12-13T11:49:52.499Z,15.15
2022-12-13T11:52:36.702Z,16.15
2022-12-13T11:55:13.033Z,15.80
2022-12-13T11:57:46.255Z,16.23
2022-12-13T12:00:35.290Z,16.13
2022-12-13T12:03:23.022Z,15.60
2022-12-13T12:05:56.515Z,16.58
2022-12-13T12:08:47.059Z,15.95
2022-12-13T12:11:32.389Z,15.27
2022-12-13T12:14:20.559Z,15.85
2022-12-13T12:16:51.415Z,15.55
2022-12-13T12:19:23.610Z,15.80
2022-12-13T12:22:25.912Z,15.07
2022-12-13T12:25:01.998Z,14.38
2022-12-13T12:27:56.671Z,13.85
2022-12-13T12:30:33.844Z,14.35
2022-12-13T12:33:26.860Z,13.88
2022-12-13T12:36:15.425Z,14.32
2022-12-13T12:39:09.133Z,14.40
2022-12-13T12:41:45.865Z,12.95
2022-12-13T12:44:20.346Z,13.55
2022-12-13T12:47:29.082Z,12.93
2022-12-13T12:50:10.943Z,13.60
2022-12-13T12:52:48.683Z,13.75
2022-12-13T12:55:42.063Z,13.80
2022-12-13T12:58:08.529Z,13.52
2022-12-13T13:00:44.615Z,13.55
2022-12-13T13:03:24.894Z,12.82
2022-12-13T13:06:02.834Z,12.40
2022-12-13T13:08:32.270Z,12.38
2022-12-13T13:11:02.074Z,13.05
2022-12-13T13:13:48.215Z,13.95
2022-12-13T13:16:26.673Z,12.50
2022-12-13T13:18:56.865Z,12.63
2022-12-13T13:21:23.384Z,13.15
2022-12-13T13:24:06.822Z,11.68
2022-12-13T13:26:42.506Z,12.15
2022-12-13T13:29:27.282Z,12.40
2022-12-13T13:32:12.838Z,12.40
2022-12-13T13:35:30.520Z,11.77
2022-12-13T13:37:59.363Z,11.95
2022-12-13T13:40:29.941Z,12.27
2022-12-13T13:43:05.279Z,12.27
2022-12-13T13:45:58.300Z,11.38
2022-12-13T13:48:53.329Z,11.68
2022-12-13T13:51:41.402Z,11.10
2022-12-13T13:54:37.259Z,12.27
2022-12-13T13:58:08.204Z,12.88
2022-12-13T14:00:52.786Z,13.10
2022-12-13T14:03:58.203Z,12.20
2022-12-13T14:06:43.558Z,13.27
2022-12-13T14:09:43.836Z,11.50
2022-12-13T14:12:32.966Z,11.50
2022-12-13T14:15:21.426Z,11.90
2022-12-13T14:18:21.529Z,11.85
2022-12-13T14:21:14.730Z,9.95
2022-12-13T14:24:00.222Z,10.32
2022-12-13T14:26:51.640Z,11.80
2022-12-13T14:29:32.887Z,9.38
2022-12-13T14:31:59.505Z,11.05
2022-12-13T14:34:28.317Z,9.63
2022-12-13T14:37:02.843Z,9.65
2022-12-13T14:39:31.164Z,10.75
2022-12-13T14:41:59.748Z,10.20
2022-12-13T14:44:31.227Z,9.68
2022-12-13T14:47:01.396Z,10.43
2022-12-13T14:49:29.944Z,10.32
2022-12-13T14:52:07.713Z,11.02
2022-12-13T14:54:58.340Z,10.60
2022-12-13T14:57:30.060Z,10.70
2022-12-13T14:59:59.036Z,9.45
2022-12-13T15:02:30.176Z,10.73
2022-12-13T15:05:03.721Z,10.93
2022-12-13T15:07:37.109Z,11.38
2022-12-13T15:10:18.570Z,10.90
2022-12-13T15:12:45.451Z,10.80
2022-12-13T15:15:22.575Z,10.30
2022-12-13T15:17:49.149Z,9.95
2022-12-13T15:20:29.465Z,10.35
2022-12-13T15:23:14.684Z,10.85
2022-12-13T15:26:03.235Z,10.82
2022-12-13T15:28:33.955Z,10.98
2022-12-13T15:31:00.969Z,11.02
2022-12-13T15:33:34.494Z,10.68
2022-12-13T15:36:07.540Z,10.73
2022-12-13T15:38:36.452Z,10.88
2022-12-13T15:41:03.959Z,9.82
2022-12-13T15:43:37.790Z,12.02
2022-12-13T15:46:06.533Z,10.05
2022-12-13T15:48:39.302Z,10.73
2022-12-13T15:51:09.373Z,10.93
2022-12-13T15:53:37.222Z,10.30
2022-12-13T15:56:30.710Z,11.65
2022-12-13T15:58:57.771Z,10.10
2022-12-13T16:01:27.041Z,11.05
2022-12-13T16:03:53.970Z,11.38
2022-12-13T16:06:22.883Z,11.40
2022-12-13T16:08:51.664Z,11.93
2022-12-13T16:11:27.901Z,10.40
2022-12-13T16:13:58.278Z,10.20
2022-12-13T16:16:30.561Z,11.05
2022-12-13T16:18:58.836Z,11.63
2022-12-13T16:21:26.213Z,12.82
2022-12-13T16:23:53.042Z,12.02
2022-12-13T16:26:28.158Z,11.70
2022-12-13T16:28:55.252Z,12.13
2022-12-13T16:31:23.708Z,11.90
2022-12-13T16:33:50.311Z,11.32
2022-12-13T16:36:17.661Z,11.80
2022-12-13T16:38:44.910Z,12.05
2022-12-13T16:41:11.645Z,11.48
2022-12-13T16:43:47.602Z,11.32
2022-12-13T16:47:15.373Z,11.48
2022-12-13T16:49:06.001Z,13.57
2022-12-13T16:51:32.549Z,11.80
2022-12-13T16:53:59.091Z,12.52
2022-12-13T16:56:25.591Z,12.68
2022-12-13T16:58:52.099Z,11.90
2022-12-13T17:01:20.370Z,13.50
2022-12-13T17:03:47.320Z,12.55
2022-12-13T17:06:14.819Z,11.88
2022-12-13T17:08:41.386Z,12.55
2022-12-13T17:11:14.675Z,12.07
2022-12-13T17:13:46.954Z,11.15
2022-12-13T17:16:14.105Z,11.80
2022-12-13T17:18:40.832Z,11.38
2022-12-13T17:21:08.180Z,11.88
2022-12-13T17:23:34.875Z,11.82
2022-12-13T17:26:06.449Z,11.35
2022-12-13T17:28:33.146Z,10.98
2022-12-13T17:31:14.671Z,10.32
2022-12-13T17:33:41.872Z,9.85
2022-12-13T17:36:10.272Z,11.63
2022-12-13T17:38:37.148Z,10.02
2022-12-13T17:41:03.999Z,9.68
2022-12-13T17:43:34.706Z,8.73
2022-12-13T17:46:10.297Z,9.50
2022-12-13T17:48:40.683Z,10.70
2022-12-13T17:51:09.207Z,9.82
2022-12-13T17:53:38.143Z,9.77
2022-12-13T17:56:07.536Z,8.95
2022-12-13T17:58:34.529Z,9.63
2022-12-13T18:01:30.784Z,9.68
2022-12-13T18:03:58.206Z,8.77
2022-12-13T18:06:25.565Z,8.65
2022-12-13T18:08:52.153Z,8.75
2022-12-13T18:11:35.870Z,11.48
2022-12-13T18:14:04.588Z,9.13
2022-12-13T18:16:37.133Z,8.75
2022-12-13T18:19:06.511Z,9.73
2022-12-13T18:21:33.749Z,9.18
2022-12-13T18:24:00.536Z,9.45
2022-12-13T18:26:27.053Z,10.00
2022-12-13T18:28:53.610Z,9.63
2022-12-13T18:31:22.689Z,11.02
2022-12-13T18:33:50.184Z,11.02
2022-12-13T18:36:17.503Z,13.63
2022-12-13T18:38:44.263Z,11.70
2022-12-13T18:41:19.267Z,11.00
2022-12-13T18:43:46.730Z,11.30
2022-12-13T18:46:14.117Z,10.13
2022-12-13T18:48:41.131Z,10.93
2022-12-13T18:51:08.907Z,10.38
2022-12-13T18:53:37.080Z,9.95
2022-12-13T18:56:06.240Z,10.70
2022-12-13T18:58:33.572Z,9.35
2022-12-13T19:01:00.176Z,13.48
2022-12-13T19:03:27.362Z,9.82
2022-12-13T19:05:56.803Z,8.82
2022-12-13T19:08:26.637Z,9.82
2022-12-13T19:10:54.160Z,9.20
2022-12-13T19:13:23.042Z,8.35
2022-12-13T19:16:11.393Z,9.23
2022-12-13T19:18:43.567Z,8.98
2022-12-13T19:21:14.035Z,9.40
2022-12-13T19:23:47.308Z,9.30
2022-12-13T19:26:20.340Z,9.88
2022-12-13T19:28:47.222Z,9.35
2022-12-13T19:31:15.698Z,9.00
2022-12-13T19:33:43.319Z,9.32
2022-12-13T19:36:10.956Z,8.43
2022-12-13T19:38:38.383Z,9.40
2022-12-13T19:41:09.957Z,8.82
2022-12-13T19:43:37.083Z,8.45
2022-12-13T19:46:04.547Z,9.48
2022-12-13T19:48:31.665Z,10.15
2022-12-13T19:51:00.706Z,9.55
2022-12-13T19:53:28.912Z,9.68
2022-12-13T19:55:56.041Z,8.75
2022-12-13T19:58:24.304Z,8.73
2022-12-13T20:00:52.281Z,9.75
2022-12-13T20:03:19.349Z,9.98
2022-12-13T20:05:46.694Z,8.55
2022-12-13T20:08:13.379Z,9.30
2022-12-13T20:10:40.651Z,9.63
2022-12-13T20:13:07.579Z,9.85
2022-12-13T20:15:34.314Z,12.40
2022-12-13T20:18:01.356Z,12.63
2022-12-13T20:20:40.850Z,11.75
2022-12-13T20:23:14.940Z,10.65
2022-12-13T20:25:41.623Z,11.18
2022-12-13T20:28:15.895Z,9.65
2022-12-13T20:30:43.273Z,9.32
2022-12-13T20:33:10.069Z,8.55
2022-12-13T20:35:54.207Z,8.90
2022-12-13T20:38:24.853Z,8.40
2022-12-13T20:40:51.602Z,8.63
2022-12-13T20:43:18.347Z,8.43
2022-12-13T20:45:45.314Z,8.95
2022-12-13T20:48:12.037Z,8.65
2022-12-13T20:50:38.760Z,9.73
2022-12-13T20:53:07.021Z,9.55
2022-12-13T20:55:34.995Z,9.02
2022-12-13T20:58:01.709Z,9.07
2022-12-13T21:00:28.641Z,9.05
2022-12-13T21:03:02.753Z,9.23
2022-12-13T21:05:29.698Z,8.55
2022-12-13T21:08:15.248Z,8.15
2022-12-13T21:10:41.931Z,7.30
2022-12-13T21:13:09.513Z,8.48
2022-12-13T21:15:37.714Z,7.25
2022-12-13T21:18:04.691Z,8.18
2022-12-13T21:20:31.485Z,7.97
2022-12-13T21:22:58.319Z,7.97
2022-12-13T21:25:25.638Z,8.13
2022-12-13T21:27:52.239Z,7.43
2022-12-13T21:30:19.844Z,8.48
2022-12-13T21:32:51.341Z,8.35
2022-12-13T21:35:19.574Z,7.75
2022-12-13T21:37:46.337Z,7.22
2022-12-13T21:40:15.873Z,7.22
2022-12-13T21:42:45.184Z,8.32
2022-12-13T21:45:12.137Z,7.53
2022-12-13T21:47:39.309Z,7.18
2022-12-13T21:50:06.638Z,7.70
2022-12-13T21:52:33.504Z,7.38
2022-12-13T21:55:22.171Z,7.88
2022-12-13T21:58:08.055Z,7.85
2022-12-13T22:00:37.321Z,7.25
2022-12-13T22:03:04.622Z,6.82
2022-12-13T22:05:31.495Z,7.68
2022-12-13T22:07:58.224Z,6.85
2022-12-13T22:10:25.021Z,7.45
2022-12-13T22:12:53.499Z,7.40
2022-12-13T22:15:20.244Z,6.70
2022-12-13T22:17:47.046Z,7.40
2022-12-13T22:20:15.524Z,6.75
2022-12-13T22:22:44.081Z,7.22
2022-12-13T22:25:11.630Z,7.43
2022-12-13T22:27:38.505Z,7.20
2022-12-13T22:30:05.720Z,6.43
2022-12-13T22:32:32.393Z,6.15
2022-12-13T22:34:58.988Z,6.47
2022-12-13T22:37:25.977Z,7.22
2022-12-13T22:39:52.534Z,7.22
2022-12-13T22:42:19.821Z,7.03
2022-12-13T22:44:46.414Z,6.80
2022-12-13T22:47:12.942Z,6.57
2022-12-13T22:49:39.947Z,6.57
2022-12-13T22:52:06.638Z,7.47
2022-12-13T22:54:33.227Z,6.30
2022-12-13T22:56:59.779Z,6.65
2022-12-13T22:59:26.338Z,5.97
2022-12-13T23:01:59.800Z,7.38
2022-12-13T23:04:28.906Z,6.18
2022-12-13T23:06:55.533Z,5.97
2022-12-13T23:09:22.682Z,6.43
2022-12-13T23:12:07.645Z,6.10
2022-12-13T23:14:34.409Z,7.25
2022-12-13T23:17:01.717Z,7.03
2022-12-13T23:19:41.577Z,5.90
2022-12-13T23:22:15.911Z,6.68
2022-12-13T23:24:42.656Z,6.60
2022-12-13T23:27:09.249Z,8.10
2022-12-13T23:29:35.799Z,7.28
2022-12-13T23:32:02.394Z,7.05
2022-12-13T23:34:28.911Z,8.38
2022-12-13T23:36:55.453Z,8.48
2022-12-13T23:39:21.967Z,9.55
2022-12-13T23:41:48.514Z,8.88
2022-12-13T23:44:15.211Z,8.88
2022-12-13T23:46:41.894Z,9.93
2022-12-13T23:49:15.260Z,9.77
2022-12-13T23:51:41.795Z,10.55
2022-12-13T23:54:08.351Z,10.80
2022-12-13T23:56:34.849Z,9.77
2022-12-13T23:59:01.513Z,9.15
